Time;durP1;ratioP1;P1;durP2;ratioP2;P2;SDS_P1;SDS_P2;PMS_P1;PMS_P2;Temp;Humidity;BMP_temperature;BMP_pressure;BME280_temperature;BME280_humidity;BME280_pressure;Samples;Min_cycle;Max_cycle;Signal;HPM_P1;HPM_P2
2022/01/17 00:01:08;;;;;;;59.40;23.05;;;;;;;-1.17;60.55;94409.44;5021374;28;20034;-80
2022/01/17 00:03:34;;;;;;;70.35;23.90;;;;;;;-1.18;60.22;94409.66;5022827;28;20025;-80
2022/01/17 00:05:59;;;;;;;67.15;25.13;;;;;;;-1.20;60.58;94404.66;5022751;28;20223;-80
2022/01/17 00:08:25;;;;;;;74.35;28.15;;;;;;;-1.25;60.49;94409.75;5022454;28;20017;-80
2022/01/17 00:10:51;;;;;;;66.13;26.45;;;;;;;-1.26;60.86;94411.59;5022355;28;20013;-80
2022/01/17 00:13:50;;;;;;;77.07;28.42;;;;;;;-1.26;60.45;94405.56;5022648;28;20057;-80
2022/01/17 00:16:12;;;;;;;71.60;27.73;;;;;;;-1.27;60.99;94411.81;5021401;28;20029;-80
2022/01/17 00:21:05;;;;;;;74.65;26.17;;;;;;;-1.34;60.84;94413.72;5022625;28;20030;-80
2022/01/17 00:23:31;;;;;;;61.58;23.35;;;;;;;-1.33;60.94;94416.09;5022568;28;20022;-80
2022/01/17 00:25:57;;;;;;;63.53;24.63;;;;;;;-1.31;60.83;94418.50;5037726;28;20101;-80
2022/01/17 00:28:22;;;;;;;65.05;25.95;;;;;;;-1.28;60.90;94412.84;5022309;28;20014;-79
2022/01/17 00:30:48;;;;;;;66.45;25.30;;;;;;;-1.26;60.52;94422.03;5022519;28;20300;-79
2022/01/17 00:33:13;;;;;;;74.28;28.95;;;;;;;-1.26;60.54;94421.25;5021238;28;20029;-79
2022/01/17 00:35:39;;;;;;;78.95;28.80;;;;;;;-1.29;60.69;94421.69;5022394;28;20041;-79
2022/01/17 00:38:05;;;;;;;77.63;29.27;;;;;;;-1.26;60.34;94423.88;5023758;28;20062;-80
2022/01/17 00:40:31;;;;;;;64.90;24.45;;;;;;;-1.25;60.32;94415.78;5026018;28;20323;-80
2022/01/17 00:42:57;;;;;;;52.90;22.27;;;;;;;-1.22;60.18;94425.00;5026056;28;20021;-80
2022/01/17 00:45:30;;;;;;;55.85;24.45;;;;;;;-1.26;60.34;94421.25;5026345;28;20089;-80
2022/01/17 00:47:57;;;;;;;54.60;23.42;;;;;;;-1.25;60.61;94438.53;5041181;28;20259;-80
2022/01/17 00:50:25;;;;;;;57.58;24.08;;;;;;;-1.24;60.51;94421.81;5040958;28;20029;-80
2022/01/17 00:52:51;;;;;;;53.30;23.35;;;;;;;-1.29;60.75;94411.22;5026021;28;20026;-80
2022/01/17 00:55:16;;;;;;;55.35;24.17;;;;;;;-1.28;60.49;94418.84;5025972;28;20252;-80
2022/01/17 00:57:42;;;;;;;56.35;24.58;;;;;;;-1.28;60.55;94412.84;5025794;28;20033;-80
2022/01/17 01:00:09;;;;;;;66.40;24.23;;;;;;;-1.33;60.64;94408.25;5025596;28;20316;-80
2022/01/17 01:02:35;;;;;;;62.10;24.63;;;;;;;-1.31;60.51;94397.59;5025836;28;20257;-79
2022/01/17 01:05:02;;;;;;;60.15;23.95;;;;;;;-1.31;60.86;94405.44;5025550;28;20028;-81
2022/01/17 01:07:28;;;;;;;58.20;24.35;;;;;;;-1.29;60.31;94396.31;5024464;28;20032;-81
2022/01/17 01:10:05;;;;;;;42.55;19.05;;;;;;;-1.28;60.51;94397.94;5025441;28;20021;-81
2022/01/17 01:12:31;;;;;;;47.00;19.25;;;;;;;-1.28;60.94;94384.06;5040683;28;20116;-81
2022/01/17 01:14:56;;;;;;;46.13;18.00;;;;;;;-1.31;60.89;94398.38;5024286;28;20041;-81
2022/01/17 01:17:34;;;;;;;45.47;20.42;;;;;;;-1.25;60.44;94396.69;5040752;28;20049;-80
2022/01/17 01:20:26;;;;;;;63.42;22.73;;;;;;;-1.32;60.55;94391.56;5025279;28;20026;-80
2022/01/17 01:28:20;;;;;;;43.47;19.63;;;;;;;-1.28;60.38;94376.22;5025425;28;20227;-81
2022/01/17 01:30:49;;;;;;;40.90;17.13;;;;;;;-1.28;60.38;94371.78;5040524;28;20026;-81
2022/01/17 01:33:37;;;;;;;39.00;16.60;;;;;;;-1.23;60.38;94384.16;5024896;28;20029;-81
2022/01/17 01:36:13;;;;;;;41.20;17.63;;;;;;;-1.24;59.96;94382.59;5040371;28;20232;-80
2022/01/17 01:38:41;;;;;;;37.13;18.45;;;;;;;-1.27;60.04;94389.06;5025037;28;20096;-80
2022/01/17 01:41:07;;;;;;;44.13;18.55;;;;;;;-1.25;60.19;94381.78;5024847;28;20029;-80
2022/01/17 01:43:33;;;;;;;42.58;20.15;;;;;;;-1.22;60.09;94386.56;5024948;28;20029;-80
2022/01/17 01:46:01;;;;;;;42.72;19.40;;;;;;;-1.31;60.36;94382.69;5040186;28;20022;-80
2022/01/17 01:48:31;;;;;;;48.22;19.92;;;;;;;-1.31;60.38;94384.50;5024431;28;20029;-80
2022/01/17 01:50:57;;;;;;;45.38;20.33;;;;;;;-1.31;60.13;94376.66;5024158;28;20025;-81
2022/01/17 01:53:23;;;;;;;47.00;20.17;;;;;;;-1.30;59.84;94373.81;5023686;28;20025;-81
2022/01/17 01:55:51;;;;;;;42.42;19.02;;;;;;;-1.27;59.77;94383.03;5024695;28;20026;-82
2022/01/17 01:58:19;;;;;;;38.92;18.60;;;;;;;-1.28;59.57;94371.00;5040196;28;20076;-81
2022/01/17 02:00:45;;;;;;;46.90;20.55;;;;;;;-1.27;59.41;94369.97;5024613;28;20021;-81
2022/01/17 02:03:10;;;;;;;55.47;21.33;;;;;;;-1.29;59.59;94358.94;5024348;28;20178;-82
2022/01/17 02:05:36;;;;;;;56.05;20.15;;;;;;;-1.27;59.14;94362.09;5024521;28;20018;-81
2022/01/17 02:08:01;;;;;;;47.35;18.50;;;;;;;-1.28;59.01;94363.16;5023336;28;20033;-80
2022/01/17 02:10:27;;;;;;;53.53;20.77;;;;;;;-1.34;59.19;94357.00;5024458;28;20053;-81
2022/01/17 02:12:52;;;;;;;50.25;19.75;;;;;;;-1.31;58.91;94355.75;5024273;28;20052;-80
2022/01/17 02:15:18;;;;;;;42.40;19.13;;;;;;;-1.35;58.76;94360.63;5023206;28;20022;-80
2022/01/17 02:17:52;;;;;;;57.60;17.95;;;;;;;-1.31;58.37;94348.69;5024209;28;20040;-80
2022/01/17 02:20:23;;;;;;;49.53;18.77;;;;;;;-1.29;58.72;94351.06;5024388;28;20062;-80
2022/01/17 02:22:50;;;;;;;43.55;19.95;;;;;;;-1.31;58.59;94340.84;5024124;28;20033;-81
2022/01/17 02:25:18;;;;;;;43.63;18.77;;;;;;;-1.33;58.81;94342.88;5024203;28;20029;-80
2022/01/17 02:27:46;;;;;;;43.78;18.58;;;;;;;-1.30;58.62;94349.50;5024125;28;20029;-80
2022/01/17 02:30:13;;;;;;;44.25;17.92;;;;;;;-1.30;58.73;94354.72;5024091;28;20022;-79
2022/01/17 02:32:39;;;;;;;46.97;17.73;;;;;;;-1.33;58.76;94345.50;5023867;28;20014;-80
2022/01/17 02:35:30;;;;;;;43.85;19.40;;;;;;;-1.33;58.78;94352.56;5024060;28;20022;-80
2022/01/17 02:37:57;;;;;;;50.38;19.75;;;;;;;-1.39;59.24;94343.78;5024327;28;20029;-80
2022/01/17 02:40:23;;;;;;;47.50;20.52;;;;;;;-1.39;59.39;94348.22;5039127;28;20022;-80
2022/01/17 02:42:50;;;;;;;60.22;22.02;;;;;;;-1.45;59.26;94355.94;5039233;28;20256;-80
2022/01/17 02:45:31;;;;;;;50.05;20.33;;;;;;;-1.44;59.49;94346.31;5023648;28;20079;-80
2022/01/17 02:47:58;;;;;;;58.13;22.23;;;;;;;-1.47;59.79;94342.28;5038882;28;20343;-80
2022/01/17 02:50:23;;;;;;;51.72;21.88;;;;;;;-1.47;59.80;94354.59;5022553;28;20216;-80
2022/01/17 02:52:48;;;;;;;55.78;22.33;;;;;;;-1.55;59.97;94353.09;5023781;28;20100;-80
2022/01/17 02:55:14;;;;;;;52.17;21.60;;;;;;;-1.57;60.11;94343.88;5023747;28;20026;-80
2022/01/17 02:57:39;;;;;;;46.22;20.75;;;;;;;-1.57;60.42;94341.28;5022359;28;20026;-79
2022/01/17 03:00:10;;;;;;;48.60;21.42;;;;;;;-1.62;60.23;94353.19;5023189;28;20036;-80
2022/01/17 03:02:35;;;;;;;50.88;20.90;;;;;;;-1.64;60.48;94354.44;5023269;28;20037;-81
2022/01/17 03:05:01;;;;;;;50.85;21.33;;;;;;;-1.70;60.61;94360.56;5038845;28;20367;-81
2022/01/17 03:07:26;;;;;;;46.55;19.85;;;;;;;-1.70;60.61;94352.72;5022356;28;20034;-81
2022/01/17 03:10:02;;;;;;;49.92;21.52;;;;;;;-1.67;60.37;94344.44;5022287;28;20334;-80
2022/01/17 03:12:30;;;;;;;43.85;18.98;;;;;;;-1.71;60.56;94345.91;5038391;28;20057;-80
2022/01/17 03:14:56;;;;;;;40.88;18.83;;;;;;;-1.70;60.47;94327.38;5023233;28;20075;-80
2022/01/17 03:17:21;;;;;;;40.53;17.60;;;;;;;-1.70;60.43;94332.63;5023427;28;20243;-80
2022/01/17 03:19:47;;;;;;;47.17;19.02;;;;;;;-1.69;60.60;94329.00;5023253;28;20029;-80
2022/01/17 03:22:12;;;;;;;40.90;17.70;;;;;;;-1.69;60.47;94320.34;5023240;28;20095;-80
2022/01/17 03:24:38;;;;;;;42.58;17.60;;;;;;;-1.68;60.67;94327.16;5023012;28;20033;-80
2022/01/17 03:27:03;;;;;;;44.15;17.65;;;;;;;-1.70;60.30;94327.38;5023123;28;20093;-80
2022/01/17 03:29:31;;;;;;;45.67;17.52;;;;;;;-1.73;60.53;94333.09;5023104;28;20025;-80
2022/01/17 03:32:00;;;;;;;54.13;19.40;;;;;;;-1.74;60.07;94339.31;5022862;28;20050;-80
2022/01/17 03:34:25;;;;;;;56.05;19.80;;;;;;;-1.71;60.40;94344.09;5022989;28;20033;-80
2022/01/17 03:36:51;;;;;;;45.10;20.60;;;;;;;-1.79;60.29;94343.63;5023043;28;20021;-80
2022/01/17 03:39:16;;;;;;;50.10;19.45;;;;;;;-1.80;60.84;94347.25;5022947;28;20029;-80
2022/01/17 03:41:42;;;;;;;52.10;19.77;;;;;;;-1.79;59.90;94351.44;5022951;28;20347;-80
2022/01/17 03:44:08;;;;;;;53.25;18.60;;;;;;;-1.77;60.18;94352.84;5022814;28;20374;-80
2022/01/17 03:46:34;;;;;;;54.38;19.20;;;;;;;-1.82;60.13;94353.50;5022691;28;20040;-80
2022/01/17 03:49:00;;;;;;;51.72;20.48;;;;;;;-1.78;60.31;94355.66;5022756;28;20227;-81
2022/01/17 03:51:26;;;;;;;49.00;19.75;;;;;;;-1.78;60.46;94372.13;5022824;28;20041;-81
2022/01/17 03:53:51;;;;;;;52.42;21.20;;;;;;;-1.77;60.53;94365.91;5022902;28;20087;-81
2022/01/17 03:56:18;;;;;;;58.63;20.98;;;;;;;-1.75;59.73;94366.47;5022862;28;20045;-81
2022/01/17 03:58:45;;;;;;;59.80;22.20;;;;;;;-1.79;59.79;94357.50;5022623;28;20068;-81
2022/01/17 04:01:11;;;;;;;52.05;20.25;;;;;;;-1.87;60.10;94353.38;5022354;28;20021;-81
2022/01/17 04:03:37;;;;;;;44.95;18.20;;;;;;;-1.91;60.53;94357.47;5022756;28;20029;-81
2022/01/17 04:06:02;;;;;;;50.15;18.83;;;;;;;-1.89;60.25;94346.78;5022760;28;20033;-81
2022/01/17 04:08:28;;;;;;;39.22;17.52;;;;;;;-1.88;60.04;94362.22;5022618;28;20021;-80
2022/01/17 04:10:53;;;;;;;41.05;17.15;;;;;;;-1.87;60.22;94352.59;5022668;28;20320;-80
2022/01/17 04:13:19;;;;;;;49.72;17.88;;;;;;;-1.85;60.31;94371.44;5024417;28;20045;-81
2022/01/17 04:15:44;;;;;;;45.45;17.88;;;;;;;-1.86;60.12;94375.06;5026363;28;20070;-81
2022/01/17 04:18:11;;;;;;;39.00;16.80;;;;;;;-1.85;60.48;94380.09;5026616;28;20084;-82
2022/01/17 04:20:38;;;;;;;35.83;16.15;;;;;;;-1.87;59.79;94378.72;5042009;28;20032;-81
2022/01/17 04:23:06;;;;;;;44.58;15.43;;;;;;;-1.85;59.63;94364.41;5026431;28;20260;-80
2022/01/17 04:25:34;;;;;;;35.20;16.02;;;;;;;-1.88;60.15;94367.44;5026321;28;20030;-79
2022/01/17 04:28:01;;;;;;;35.50;14.18;;;;;;;-1.88;59.87;94367.44;5026300;28;20021;-79
2022/01/17 04:30:28;;;;;;;40.83;15.82;;;;;;;-1.90;60.07;94369.50;5026181;28;20025;-81
2022/01/17 04:32:55;;;;;;;34.42;16.55;;;;;;;-1.87;60.15;94361.22;5026213;28;20025;-81
2022/01/17 04:35:21;;;;;;;34.00;14.93;;;;;;;-1.88;59.85;94359.59;5026233;28;20033;-81
2022/01/17 04:37:53;;;;;;;39.83;15.30;;;;;;;-1.91;60.15;94360.06;5026140;28;20096;-83
2022/01/17 04:40:19;;;;;;;36.70;15.90;;;;;;;-1.90;60.49;94359.03;5025089;28;20025;-82
2022/01/17 04:42:47;;;;;;;37.53;15.80;;;;;;;-1.97;60.46;94353.13;5026177;28;20033;-82
2022/01/17 04:45:16;;;;;;;40.25;15.60;;;;;;;-1.97;60.43;94345.28;5025952;28;20068;-82
2022/01/17 04:47:43;;;;;;;42.88;15.40;;;;;;;-1.95;60.29;94353.69;5026245;28;20029;-82
2022/01/17 04:50:13;;;;;;;30.90;13.52;;;;;;;-1.93;60.26;94356.09;5026235;28;20049;-82
2022/01/17 04:52:38;;;;;;;37.30;16.75;;;;;;;-1.96;60.61;94333.81;5026130;28;20034;-82
2022/01/17 04:55:08;;;;;;;37.58;16.50;;;;;;;-1.94;60.51;94338.81;5025724;28;20331;-82
2022/01/17 04:57:34;;;;;;;45.50;17.98;;;;;;;-1.99;60.32;94339.50;5025918;28;20036;-79
2022/01/17 04:59:59;;;;;;;39.55;16.77;;;;;;;-1.99;60.44;94333.44;5025780;28;20053;-78
2022/01/17 05:02:25;;;;;;;41.60;16.63;;;;;;;-1.99;60.49;94343.91;5025701;28;20025;-78
2022/01/17 05:04:53;;;;;;;46.60;17.02;;;;;;;-1.96;60.43;94333.00;5024666;28;20026;-79
2022/01/17 05:07:19;;;;;;;43.25;16.40;;;;;;;-1.99;60.18;94338.66;5025737;28;20026;-79
2022/01/17 05:09:46;;;;;;;44.95;16.98;;;;;;;-1.97;60.46;94341.84;5025638;28;20339;-79
2022/01/17 05:12:12;;;;;;;36.25;17.17;;;;;;;-1.94;60.63;94339.59;5024222;28;20025;-79
2022/01/17 05:14:43;;;;;;;43.58;18.05;;;;;;;-1.99;60.00;94323.00;5040849;28;20100;-79
2022/01/17 05:17:58;;;;;;;43.70;18.00;;;;;;;-2.04;60.33;94337.53;5025479;28;20030;-79
2022/01/17 05:19:57;;;;;;;52.85;18.60;;;;;;;-2.02;60.74;94342.53;5028059;28;20038;-79
2022/01/17 05:22:25;;;;;;;44.88;17.17;;;;;;;-2.02;60.16;94339.91;5025505;28;20048;-79
2022/01/17 05:24:51;;;;;;;47.78;19.30;;;;;;;-2.04;60.24;94347.19;5025192;28;20026;-79
2022/01/17 05:27:19;;;;;;;47.20;17.67;;;;;;;-2.03;59.99;94344.34;5025208;28;20025;-80
2022/01/17 05:29:46;;;;;;;43.47;17.20;;;;;;;-2.02;59.81;94360.81;5025801;28;20034;-79
2022/01/17 05:32:14;;;;;;;42.85;16.88;;;;;;;-2.03;59.96;94364.47;5024076;28;20037;-79
2022/01/17 05:34:41;;;;;;;47.38;17.13;;;;;;;-2.04;59.77;94357.63;5024901;28;20022;-79
2022/01/17 05:37:08;;;;;;;46.88;16.23;;;;;;;-2.13;59.84;94361.59;5025313;28;20052;-79
2022/01/17 05:39:34;;;;;;;43.03;17.98;;;;;;;-2.21;60.04;94349.63;5024981;28;20220;-80
2022/01/17 05:42:00;;;;;;;42.95;18.08;;;;;;;-2.22;60.47;94364.50;5024822;28;20330;-80
2022/01/17 05:44:25;;;;;;;36.10;16.92;;;;;;;-2.24;60.54;94356.09;5023676;28;20053;-79
2022/01/17 05:46:51;;;;;;;40.17;16.80;;;;;;;-2.22;60.53;94356.69;5023797;28;20053;-80
2022/01/17 05:49:37;;;;;;;43.80;17.60;;;;;;;-2.28;61.05;94370.63;5024644;28;20064;-81
2022/01/17 05:52:04;;;;;;;39.28;17.80;;;;;;;-2.23;61.05;94372.56;5024900;28;20018;-81
2022/01/17 05:54:29;;;;;;;53.03;22.27;;;;;;;-2.20;61.17;94368.69;5024749;28;20045;-80
2022/01/17 05:56:55;;;;;;;45.47;19.58;;;;;;;-2.23;61.25;94356.88;5024751;28;20395;-80
2022/01/17 05:59:20;;;;;;;46.38;20.13;;;;;;;-2.18;61.36;94367.44;5024856;28;20018;-80
2022/01/17 06:01:46;;;;;;;45.08;17.80;;;;;;;-2.14;60.96;94363.38;5023358;28;20060;-80
2022/01/17 06:04:11;;;;;;;48.70;18.00;;;;;;;-2.17;60.87;94363.84;5024538;28;20030;-80
2022/01/17 06:06:39;;;;;;;39.72;17.98;;;;;;;-2.14;61.13;94373.81;5023213;28;20030;-80
2022/01/17 06:09:07;;;;;;;44.03;19.23;;;;;;;-2.14;61.42;94375.66;5024521;28;20026;-80
2022/01/17 06:11:40;;;;;;;50.10;18.02;;;;;;;-2.07;61.28;94379.78;5024664;28;20088;-80
2022/01/17 06:14:07;;;;;;;42.35;18.13;;;;;;;-2.04;61.13;94374.09;5024425;28;20088;-80
2022/01/17 06:16:33;;;;;;;39.80;17.75;;;;;;;-2.02;60.69;94379.91;5024481;28;20029;-79
2022/01/17 06:18:59;;;;;;;54.92;19.42;;;;;;;-2.00;60.46;94382.28;5024364;28;20140;-79
2022/01/17 06:21:24;;;;;;;52.50;20.08;;;;;;;-1.95;60.38;94372.00;5024361;28;20037;-80
2022/01/17 06:23:52;;;;;;;46.08;18.40;;;;;;;-1.98;60.64;94366.41;5024499;28;20079;-80
2022/01/17 06:26:20;;;;;;;48.47;19.67;;;;;;;-2.00;61.40;94379.69;5024515;28;20018;-79
2022/01/17 06:28:46;;;;;;;49.30;19.05;;;;;;;-1.96;61.17;94369.59;5039499;28;20052;-77
2022/01/17 06:31:12;;;;;;;49.58;20.75;;;;;;;-1.94;60.95;94368.34;5039448;28;20208;-79
2022/01/17 06:33:40;;;;;;;67.25;27.58;;;;;;;-1.89;60.65;94375.53;5024235;28;20049;-80
2022/01/17 06:36:13;;;;;;;69.35;28.45;;;;;;;-1.85;60.72;94372.25;5022228;28;20072;-80
2022/01/17 06:38:42;;;;;;;58.72;23.77;;;;;;;-1.80;60.58;94384.63;5039378;28;20030;-80
2022/01/17 06:41:07;;;;;;;53.85;22.50;;;;;;;-1.79;60.58;94365.34;5023882;28;20033;-79
2022/01/17 06:43:33;;;;;;;53.72;22.67;;;;;;;-1.78;60.40;94381.81;5023933;28;20022;-79
2022/01/17 06:45:58;;;;;;;49.38;21.58;;;;;;;-1.78;60.29;94377.38;5024038;28;20029;-79
2022/01/17 06:48:24;;;;;;;53.25;22.13;;;;;;;-1.74;59.97;94372.50;5023772;28;20324;-80
2022/01/17 06:50:52;;;;;;;59.15;21.50;;;;;;;-1.70;60.50;94381.47;5039064;28;20029;-80
2022/01/17 06:53:17;;;;;;;62.10;22.27;;;;;;;-1.61;60.38;94385.34;5023785;28;20235;-79
2022/01/17 06:55:43;;;;;;;62.45;23.55;;;;;;;-1.52;59.99;94388.47;5022485;28;20057;-79
2022/01/17 06:58:09;;;;;;;49.10;21.90;;;;;;;-1.43;58.89;94387.88;5023587;28;20381;-78
2022/01/17 07:00:34;;;;;;;57.53;23.25;;;;;;;-1.34;58.99;94384.94;5023664;28;20044;-81
2022/01/17 07:03:00;;;;;;;48.95;21.63;;;;;;;-1.27;58.25;94390.88;5023680;28;20346;-81
2022/01/17 07:05:25;;;;;;;59.88;21.77;;;;;;;-1.21;58.22;94398.59;5023641;28;20026;-81
2022/01/17 07:07:51;;;;;;;45.45;19.48;;;;;;;-1.12;58.36;94383.41;5023638;28;20026;-80
2022/01/17 07:10:16;;;;;;;58.67;22.58;;;;;;;-1.05;58.80;94378.03;5022597;28;20025;-80
2022/01/17 07:12:41;;;;;;;54.58;20.45;;;;;;;-0.90;57.98;94382.81;5023438;28;20037;-80
2022/01/17 07:15:08;;;;;;;46.15;19.25;;;;;;;-0.82;57.82;94388.47;5023530;28;20025;-79
2022/01/17 07:17:34;;;;;;;39.67;18.90;;;;;;;-0.72;57.63;94394.97;5023244;28;20227;-81
2022/01/17 07:20:00;;;;;;;44.90;19.00;;;;;;;-0.63;57.34;94402.25;5023675;28;20025;-78
2022/01/17 07:22:27;;;;;;;62.20;24.20;;;;;;;-0.50;56.58;94403.81;5023538;28;20080;-81
2022/01/17 07:24:56;;;;;;;45.60;18.33;;;;;;;-0.40;55.86;94424.19;5025173;28;20022;-79
2022/01/17 07:27:24;;;;;;;41.25;18.25;;;;;;;-0.31;55.58;94428.03;5023270;28;20045;-80
2022/01/17 07:29:49;;;;;;;45.63;19.02;;;;;;;-0.21;53.89;94423.00;5023565;28;20053;-80
2022/01/17 07:32:15;;;;;;;43.38;17.55;;;;;;;-0.09;53.55;94419.56;5023320;28;20022;-77
2022/01/17 07:34:40;;;;;;;53.90;18.88;;;;;;;-0.02;54.00;94413.19;5022872;28;20022;-78
2022/01/17 07:37:06;;;;;;;52.40;18.83;;;;;;;0.08;53.14;94412.56;5023031;28;20089;-78
2022/01/17 07:39:31;;;;;;;48.92;17.20;;;;;;;0.10;53.10;94407.06;5022971;28;20350;-78
2022/01/17 07:41:57;;;;;;;49.92;18.48;;;;;;;0.19;52.87;94390.75;5022859;28;20038;-78
2022/01/17 07:44:24;;;;;;;44.47;19.10;;;;;;;0.25;52.86;94393.47;5023184;28;20032;-79
2022/01/17 07:46:55;;;;;;;50.40;17.73;;;;;;;0.15;53.71;94376.53;5023260;28;20043;-79
2022/01/17 07:49:21;;;;;;;41.97;18.85;;;;;;;0.27;53.87;94375.69;5023079;28;20026;-79
2022/01/17 07:51:58;;;;;;;54.53;19.13;;;;;;;0.41;53.94;94392.72;5022954;28;20021;-78
2022/01/17 07:54:25;;;;;;;39.22;17.00;;;;;;;0.47;53.52;94390.94;5022970;28;20308;-79
2022/01/17 07:56:51;;;;;;;44.08;16.00;;;;;;;0.62;51.84;94411.41;5023256;28;20048;-78
2022/01/17 07:59:17;;;;;;;10.82;4.60;;;;;;;1.12;50.98;94447.34;5022998;28;20026;-81
2022/01/17 08:01:43;;;;;;;8.73;3.72;;;;;;;1.63;50.10;94477.03;5022614;28;20256;-80
2022/01/17 08:04:09;;;;;;;8.20;3.10;;;;;;;1.90;49.06;94474.47;5021470;28;20021;-79
2022/01/17 08:06:38;;;;;;;6.63;3.10;;;;;;;2.04;49.63;94466.25;5022790;28;20021;-81
2022/01/17 08:09:17;;;;;;;7.30;2.85;;;;;;;2.10;48.35;94445.03;5022789;28;20026;-81
2022/01/17 08:11:42;;;;;;;10.02;3.58;;;;;;;2.25;48.46;94419.94;5039233;28;20088;-80
2022/01/17 08:14:08;;;;;;;11.77;3.78;;;;;;;2.35;48.03;94393.72;5023689;28;20295;-81
2022/01/17 08:16:33;;;;;;;14.80;3.65;;;;;;;2.41;46.83;94380.38;5023043;28;20022;-80
2022/01/17 08:18:59;;;;;;;13.30;3.70;;;;;;;2.42;47.06;94368.00;5023214;28;20022;-79
2022/01/17 08:21:24;;;;;;;10.52;3.83;;;;;;;2.51;46.50;94377.03;5023999;28;20034;-80
2022/01/17 08:23:52;;;;;;;13.57;4.10;;;;;;;2.58;47.11;94361.03;5023402;28;20071;-78
2022/01/17 08:26:18;;;;;;;18.17;4.40;;;;;;;2.70;46.25;94395.88;5039287;28;20022;-82
2022/01/17 08:28:44;;;;;;;8.35;4.28;;;;;;;2.64;45.81;94443.47;5024148;28;20022;-81
2022/01/17 08:31:09;;;;;;;8.00;3.13;;;;;;;2.78;45.18;94458.63;5023208;28;20018;-79
2022/01/17 08:33:35;;;;;;;11.50;3.20;;;;;;;2.92;45.61;94460.84;5022871;28;20347;-80
2022/01/17 08:36:00;;;;;;;4.75;2.65;;;;;;;3.06;43.73;94477.84;5022171;28;20402;-82
2022/01/17 08:38:28;;;;;;;6.15;2.38;;;;;;;3.10;42.51;94494.72;5037544;28;20046;-82
2022/01/17 08:40:57;;;;;;;4.70;2.13;;;;;;;3.18;42.37;94461.88;5022017;28;20116;-84
2022/01/17 08:43:23;;;;;;;5.68;2.42;;;;;;;3.17;42.51;94431.28;5022249;28;20263;-81
2022/01/17 08:45:49;;;;;;;6.22;2.33;;;;;;;3.18;42.72;94453.97;5037635;28;20092;-82
2022/01/17 08:48:15;;;;;;;4.72;2.00;;;;;;;3.22;43.63;94412.91;5037788;28;20025;-81
2022/01/17 08:50:41;;;;;;;3.67;1.95;;;;;;;3.23;43.63;94390.75;5022194;28;20234;-80
2022/01/17 08:53:10;;;;;;;5.80;2.50;;;;;;;3.32;43.25;94393.75;5022289;28;20026;-78
2022/01/17 08:55:36;;;;;;;6.55;2.10;;;;;;;3.42;43.65;94339.25;5022175;28;20248;-80
2022/01/17 08:58:04;;;;;;;5.10;2.58;;;;;;;3.46;43.31;94328.19;5022124;28;20032;-78
2022/01/17 09:00:31;;;;;;;3.90;1.83;;;;;;;3.55;43.20;94350.38;5025758;28;20287;-80
2022/01/17 09:02:57;;;;;;;6.15;2.28;;;;;;;3.60;43.62;94342.47;5025694;28;20219;-81
2022/01/17 09:05:23;;;;;;;5.35;2.33;;;;;;;3.64;42.51;94319.81;5041109;28;20017;-81
2022/01/17 09:07:48;;;;;;;3.88;2.05;;;;;;;3.74;42.58;94293.50;5025719;28;20347;-80
2022/01/17 09:10:13;;;;;;;5.68;2.10;;;;;;;3.76;42.54;94288.75;5025347;28;20332;-81
2022/01/17 09:12:39;;;;;;;3.95;2.03;;;;;;;3.94;40.35;94269.03;5025583;28;20037;-82
2022/01/17 09:15:04;;;;;;;3.97;2.22;;;;;;;4.01;38.96;94264.28;5025512;28;20220;-82
2022/01/17 09:17:30;;;;;;;4.18;1.60;;;;;;;4.09;38.50;94273.53;5025467;28;20017;-85
2022/01/17 09:19:55;;;;;;;4.57;2.22;;;;;;;4.16;38.60;94262.72;5025315;28;20129;-81
2022/01/17 09:22:21;;;;;;;4.63;2.20;;;;;;;4.27;38.77;94295.19;5025452;28;20079;-83
2022/01/17 09:24:46;;;;;;;3.03;1.67;;;;;;;4.16;38.95;94274.06;5040634;28;20053;-83
2022/01/17 09:27:15;;;;;;;4.05;2.20;;;;;;;4.14;39.35;94291.22;5025138;28;20018;-82
2022/01/17 09:29:40;;;;;;;7.97;2.10;;;;;;;4.13;39.86;94281.72;5025148;28;20025;-82
2022/01/17 09:32:07;;;;;;;7.07;3.00;;;;;;;4.21;40.18;94297.84;5040431;28;20018;-83
2022/01/17 09:34:33;;;;;;;7.75;2.33;;;;;;;4.15;40.18;94292.78;5040437;28;20334;-81
2022/01/17 09:36:58;;;;;;;9.15;2.65;;;;;;;4.09;39.60;94292.00;5040521;28;20022;-83
2022/01/17 09:39:24;;;;;;;4.20;2.20;;;;;;;4.11;38.03;94302.28;5025147;28;20017;-83
2022/01/17 09:41:49;;;;;;;7.75;3.40;;;;;;;4.16;39.80;94303.09;5025382;28;20316;-84
2022/01/17 09:44:15;;;;;;;7.30;2.97;;;;;;;4.21;39.42;94315.50;5024829;28;20014;-81
2022/01/17 09:46:44;;;;;;;11.75;3.50;;;;;;;4.27;40.11;94316.28;5024745;28;20024;-82
2022/01/17 09:49:24;;;;;;;8.23;3.22;;;;;;;4.19;40.96;94299.94;5025042;28;20056;-83
2022/01/17 09:54:28;;;;;;;5.35;3.10;;;;;;;4.12;42.21;94325.00;5024843;28;20026;-83
2022/01/17 09:56:54;;;;;;;9.43;3.08;;;;;;;4.18;42.58;94308.13;5025167;28;20021;-80
2022/01/17 09:59:20;;;;;;;8.20;3.72;;;;;;;4.22;42.80;94302.03;5024709;28;20022;-79
2022/01/17 10:01:47;;;;;;;5.72;3.42;;;;;;;4.08;43.04;94329.97;5024441;28;20033;-78
2022/01/17 10:04:13;;;;;;;6.38;3.42;;;;;;;3.96;43.71;94334.69;5024384;28;20022;-80
2022/01/17 10:06:40;;;;;;;9.48;3.08;;;;;;;3.92;43.62;94304.63;5039806;28;20102;-79
2022/01/17 10:09:17;;;;;;;8.68;3.25;;;;;;;3.99;44.02;94315.72;5024450;28;20026;-80
2022/01/17 10:12:00;;;;;;;8.77;4.07;;;;;;;3.91;44.31;94317.03;5023329;28;20025;-80
2022/01/17 10:14:26;;;;;;;;;;;;;;;3.97;44.47;94329.19;5024990;28;20228;-79
2022/01/17 10:16:51;;;;;;;11.82;4.75;;;;;;;3.89;44.83;94319.13;5039811;28;19916;-79
2022/01/17 10:19:21;;;;;;;30.42;6.03;;;;;;;3.96;44.57;94319.66;5024305;28;20104;-79
2022/01/17 10:21:50;;;;;;;22.73;7.97;;;;;;;3.98;48.23;94341.28;5024253;28;20305;-78
2022/01/17 10:34:55;;;;;;;15.15;5.35;;;;;;;2.78;54.63;94315.66;5024194;28;20029;-78
2022/01/17 10:37:23;;;;;;;15.15;4.78;;;;;;;2.52;55.35;94314.69;5023837;28;20044;-78
2022/01/17 10:40:15;;;;;;;14.63;4.68;;;;;;;2.39;56.69;94300.13;5023916;28;20026;-79
2022/01/17 10:42:47;;;;;;;10.65;4.80;;;;;;;2.51;56.20;94287.59;5023642;28;20038;-78
2022/01/17 10:45:25;;;;;;;9.10;4.93;;;;;;;2.60;55.84;94301.84;5023591;28;20033;-78
2022/01/17 10:47:52;;;;;;;10.88;4.50;;;;;;;2.61;55.71;94277.13;5023688;28;20017;-79
2022/01/17 10:50:24;;;;;;;14.52;4.90;;;;;;;2.69;55.83;94282.97;5023831;28;20028;-82
2022/01/17 10:52:52;;;;;;;10.05;4.53;;;;;;;2.72;55.22;94279.81;5022972;28;20220;-79
2022/01/17 10:55:37;;;;;;;5.95;2.80;;;;;;;2.71;55.36;94276.41;5022393;28;20018;-79
2022/01/17 10:58:11;;;;;;;11.45;5.38;;;;;;;2.78;54.80;94284.09;5023684;28;20021;-79
2022/01/17 11:00:41;;;;;;;12.07;5.10;;;;;;;2.99;52.62;94298.97;5023305;28;20022;-80
2022/01/17 11:03:09;;;;;;;13.60;5.93;;;;;;;3.13;52.68;94264.25;5038708;28;20315;-79
2022/01/17 11:05:37;;;;;;;13.60;5.32;;;;;;;3.37;51.47;94269.91;5023529;28;20022;-79
2022/01/17 11:08:04;;;;;;;9.57;3.90;;;;;;;3.35;51.01;94275.44;5023487;28;20033;-78
2022/01/17 11:10:32;;;;;;;7.80;3.97;;;;;;;3.38;50.71;94290.75;5038621;28;20025;-79
2022/01/17 11:13:01;;;;;;;10.15;4.75;;;;;;;3.45;50.71;94292.34;5023464;28;20038;-80
2022/01/17 11:15:32;;;;;;;5.10;2.75;;;;;;;3.41;49.01;94295.47;5038514;28;20093;-80
2022/01/17 11:18:01;;;;;;;7.13;3.35;;;;;;;3.45;49.52;94277.31;5023085;28;20025;-81
2022/01/17 11:20:28;;;;;;;8.50;3.70;;;;;;;3.62;49.02;94269.19;5023095;28;20232;-84
2022/01/17 11:22:56;;;;;;;6.40;2.97;;;;;;;3.78;47.96;94283.22;5022922;28;20032;-82
2022/01/17 11:25:30;;;;;;;5.32;2.67;;;;;;;3.72;48.63;94269.22;5023242;28;20307;-80
2022/01/17 11:27:56;;;;;;;11.40;3.00;;;;;;;3.81;48.34;94257.13;5038456;28;20033;-81
2022/01/17 11:30:23;;;;;;;7.45;2.75;;;;;;;3.67;47.60;94242.88;5023660;28;20121;-82
2022/01/17 11:32:51;;;;;;;4.85;2.53;;;;;;;3.70;47.62;94255.50;5038606;28;20029;-80
2022/01/17 11:35:18;;;;;;;7.00;3.10;;;;;;;3.78;47.53;94268.19;5022956;28;20236;-81
2022/01/17 11:37:49;;;;;;;11.05;4.20;;;;;;;3.83;47.56;94251.59;5038171;28;20228;-81
2022/01/17 11:40:22;;;;;;;4.80;2.70;;;;;;;3.85;47.45;94244.22;5022988;28;20026;-82
2022/01/17 11:42:50;;;;;;;6.57;2.63;;;;;;;3.76;47.18;94269.50;5022997;28;20029;-80
2022/01/17 11:45:22;;;;;;;4.75;2.05;;;;;;;3.80;47.64;94276.63;5038118;28;20102;-79
2022/01/17 11:47:53;;;;;;;9.27;2.70;;;;;;;3.93;47.40;94271.91;5038064;28;20030;-77